createdAt,value
2022-09-06T00:02:02.156Z,20.10
2022-09-06T00:04:04.753Z,20.20
2022-09-06T00:06:11.258Z,20.20
2022-09-06T00:08:14.479Z,20.10
2022-09-06T00:10:17.108Z,20.10
2022-09-06T00:12:19.718Z,20.10
2022-09-06T00:14:22.262Z,20.10
2022-09-06T00:16:29.712Z,20.20
2022-09-06T00:18:29.351Z,20.20
2022-09-06T00:22:48.879Z,20.20
2022-09-06T00:24:53.682Z,20.20
2022-09-06T00:26:56.210Z,20.30
2022-09-06T00:29:19.162Z,20.40
2022-09-06T00:31:44.474Z,20.40
2022-09-06T00:33:48.863Z,20.40
2022-09-06T00:35:53.228Z,20.50
2022-09-06T00:37:59.124Z,20.50
2022-09-06T00:40:01.816Z,20.50
2022-09-06T00:42:08.353Z,20.60
2022-09-06T00:44:11.174Z,20.60
2022-09-06T00:46:15.724Z,20.70
2022-09-06T00:48:18.855Z,20.70
2022-09-06T00:50:21.470Z,20.70
2022-09-06T00:52:24.490Z,20.70
2022-09-06T00:54:27.342Z,20.60
2022-09-06T00:56:31.550Z,20.60
2022-09-06T00:58:34.266Z,20.60
2022-09-06T01:00:37.503Z,20.50
2022-09-06T01:02:40.117Z,20.50
2022-09-06T01:04:43.843Z,20.40
2022-09-06T01:06:50.087Z,20.40
2022-09-06T01:08:58.014Z,20.30
2022-09-06T01:11:11.181Z,20.40
2022-09-06T01:13:18.554Z,20.40
2022-09-06T01:15:25.211Z,20.50
2022-09-06T01:17:30.002Z,20.50
2022-09-06T01:19:51.834Z,20.50
2022-09-06T01:21:56.335Z,20.50
2022-09-06T01:24:16.410Z,20.50
2022-09-06T01:26:34.093Z,20.50
2022-09-06T01:28:37.335Z,20.50
2022-09-06T01:30:41.716Z,20.50
2022-09-06T01:32:46.566Z,20.40
2022-09-06T01:34:51.074Z,20.40
2022-09-06T01:37:09.474Z,20.30
2022-09-06T01:39:00.074Z,20.30
2022-09-06T01:41:02.609Z,20.30
2022-09-06T01:43:10.764Z,20.20
2022-09-06T01:45:13.934Z,20.20
2022-09-06T01:47:20.687Z,20.10
2022-09-06T01:49:26.343Z,20.10
2022-09-06T01:51:31.225Z,20.10
2022-09-06T01:53:37.703Z,20.10
2022-09-06T01:55:42.059Z,20.10
2022-09-06T01:57:51.083Z,20.10
2022-09-06T02:00:00.296Z,20.10
2022-09-06T02:02:05.228Z,20.00
2022-09-06T02:04:09.710Z,20.10
2022-09-06T02:06:14.282Z,20.20
2022-09-06T02:08:17.514Z,20.30
2022-09-06T02:10:21.903Z,20.30
2022-09-06T02:12:25.264Z,20.50
2022-09-06T02:14:29.788Z,20.50
2022-09-06T02:16:34.195Z,20.60
2022-09-06T02:18:38.603Z,20.60
2022-09-06T02:20:42.088Z,20.70
2022-09-06T02:22:46.107Z,20.80
2022-09-06T02:27:07.818Z,20.90
2022-09-06T02:29:10.675Z,20.90
2022-09-06T02:31:15.065Z,21.00
2022-09-06T02:33:19.283Z,21.00
2022-09-06T02:35:21.839Z,21.00
2022-09-06T02:37:25.575Z,21.10
2022-09-06T02:39:28.164Z,21.10
2022-09-06T02:41:31.453Z,21.10
2022-09-06T02:43:34.099Z,21.10
2022-09-06T02:45:36.681Z,21.10
2022-09-06T02:47:39.255Z,21.20
2022-09-06T02:49:41.818Z,21.20
2022-09-06T02:51:44.353Z,21.10
2022-09-06T02:53:46.877Z,21.20
2022-09-06T02:55:49.562Z,21.20
2022-09-06T02:57:52.138Z,21.20
2022-09-06T02:59:54.666Z,21.20
2022-09-06T03:01:57.243Z,21.30
2022-09-06T03:04:00.268Z,21.30
2022-09-06T03:06:02.927Z,21.30
2022-09-06T03:08:05.646Z,21.30
2022-09-06T03:10:08.975Z,21.30
2022-09-06T03:12:11.503Z,21.20
2022-09-06T03:14:15.707Z,21.20
2022-09-06T03:16:18.826Z,21.20
2022-09-06T03:18:21.542Z,21.20
2022-09-06T03:20:24.127Z,21.20
2022-09-06T03:22:26.702Z,21.30
2022-09-06T03:24:29.238Z,21.20
2022-09-06T03:26:31.819Z,21.20
2022-09-06T03:28:34.443Z,21.20
2022-09-06T03:30:37.042Z,21.20
2022-09-06T03:32:39.615Z,21.10
2022-09-06T03:34:42.532Z,21.20
2022-09-06T03:36:45.063Z,21.30
2022-09-06T03:38:47.596Z,21.20
2022-09-06T03:40:50.953Z,21.30
2022-09-06T03:42:53.478Z,21.30
2022-09-06T03:44:56.058Z,21.20
2022-09-06T03:46:58.617Z,21.20
2022-09-06T03:49:01.459Z,21.10
2022-09-06T03:51:04.047Z,21.10
2022-09-06T03:53:06.562Z,21.00
2022-09-06T03:55:11.432Z,21.10
2022-09-06T03:57:13.966Z,21.10
2022-09-06T03:59:16.514Z,21.00
2022-09-06T04:01:19.316Z,21.00
2022-09-06T04:03:21.890Z,21.00
2022-09-06T04:05:24.567Z,21.00
2022-09-06T04:07:30.966Z,21.00
2022-09-06T04:09:38.690Z,21.00
2022-09-06T04:11:50.233Z,21.00
2022-09-06T04:13:59.236Z,20.90
2022-09-06T04:16:09.251Z,21.00
2022-09-06T04:18:12.204Z,20.90
2022-09-06T04:20:15.927Z,21.00
2022-09-06T04:22:18.687Z,20.90
2022-09-06T04:24:21.220Z,20.90
2022-09-06T04:26:23.873Z,20.90
2022-09-06T04:28:27.102Z,20.90
2022-09-06T04:30:29.781Z,20.80
2022-09-06T04:32:32.515Z,20.90
2022-09-06T04:34:35.158Z,20.80
2022-09-06T04:36:37.937Z,20.90
2022-09-06T04:38:41.894Z,20.90
2022-09-06T04:40:44.409Z,20.80
2022-09-06T04:42:46.955Z,20.80
2022-09-06T04:47:12.223Z,20.80
2022-09-06T04:49:14.858Z,20.80
2022-09-06T04:51:17.789Z,20.80
2022-09-06T04:53:20.311Z,20.80
2022-09-06T04:55:22.906Z,20.80
2022-09-06T04:57:25.486Z,20.70
2022-09-06T04:59:27.999Z,20.70
2022-09-06T05:01:30.663Z,20.70
2022-09-06T05:03:33.375Z,20.70
2022-09-06T05:05:35.915Z,20.80
2022-09-06T05:07:38.866Z,20.70
2022-09-06T05:09:41.376Z,20.70
2022-09-06T05:11:43.990Z,20.70
2022-09-06T05:13:46.821Z,20.70
2022-09-06T05:15:49.322Z,20.70
2022-09-06T05:17:51.862Z,20.70
2022-09-06T05:19:54.478Z,20.70
2022-09-06T05:21:57.031Z,20.70
2022-09-06T05:23:59.549Z,20.80
2022-09-06T05:26:02.809Z,20.90
2022-09-06T05:28:05.322Z,20.90
2022-09-06T05:30:09.187Z,20.90
2022-09-06T05:32:11.746Z,21.00
2022-09-06T05:34:14.599Z,20.90
2022-09-06T05:36:17.126Z,20.90
2022-09-06T05:38:19.763Z,20.90
2022-09-06T05:40:22.376Z,20.90
2022-09-06T05:42:24.916Z,20.90
2022-09-06T05:44:27.456Z,20.80
2022-09-06T05:46:30.035Z,20.70
2022-09-06T05:48:36.799Z,20.80
2022-09-06T05:50:36.876Z,20.80
2022-09-06T05:52:39.455Z,20.80
2022-09-06T05:54:41.998Z,20.80
2022-09-06T05:56:44.723Z,20.90
2022-09-06T05:58:47.285Z,20.90
2022-09-06T06:00:50.115Z,20.80
2022-09-06T06:02:52.666Z,20.70
2022-09-06T06:04:55.454Z,20.70
2022-09-06T06:06:57.978Z,20.70
2022-09-06T06:09:01.862Z,20.60
2022-09-06T06:11:04.438Z,20.60
2022-09-06T06:13:07.186Z,20.60
2022-09-06T06:15:10.555Z,20.60
2022-09-06T06:17:13.058Z,20.60
2022-09-06T06:19:15.679Z,20.60
2022-09-06T06:21:20.014Z,20.60
2022-09-06T06:23:22.533Z,20.60
2022-09-06T06:25:25.675Z,20.50
2022-09-06T06:27:28.346Z,20.50
2022-09-06T06:29:31.259Z,20.50
2022-09-06T06:31:33.833Z,20.60
2022-09-06T06:33:36.417Z,20.60
2022-09-06T06:35:40.203Z,20.60
2022-09-06T06:37:44.103Z,20.60
2022-09-06T06:39:47.396Z,20.60
2022-09-06T06:41:50.202Z,20.50
2022-09-06T06:43:55.348Z,20.50
2022-09-06T06:45:57.941Z,20.50
2022-09-06T06:48:00.554Z,20.50
2022-09-06T06:50:03.331Z,20.50
2022-09-06T06:52:06.439Z,20.60
2022-09-06T06:54:08.982Z,20.70
2022-09-06T06:56:16.165Z,20.70
2022-09-06T06:58:18.890Z,20.80
2022-09-06T07:00:24.053Z,20.90
2022-09-06T07:02:25.913Z,21.10
2022-09-06T07:04:28.518Z,21.10
2022-09-06T07:08:36.574Z,21.40
2022-09-06T07:10:39.089Z,21.60
2022-09-06T07:12:41.659Z,21.80
2022-09-06T07:14:44.165Z,21.90
2022-09-06T07:16:49.299Z,22.10
2022-09-06T07:18:54.307Z,22.10
2022-09-06T07:25:11.154Z,22.50
2022-09-06T07:29:18.008Z,22.60
2022-09-06T07:33:25.177Z,22.70
2022-09-06T07:35:27.726Z,22.80
2022-09-06T07:37:33.195Z,22.90
2022-09-06T07:39:36.472Z,23.00
2022-09-06T07:41:39.033Z,23.10
2022-09-06T07:43:42.053Z,23.20
2022-09-06T07:45:44.653Z,23.30
2022-09-06T07:54:28.783Z,23.60
2022-09-06T07:56:12.627Z,23.70
2022-09-06T07:58:15.279Z,23.70
2022-09-06T08:00:19.198Z,23.70
2022-09-06T08:02:21.784Z,24.00
2022-09-06T08:04:24.361Z,24.10
2022-09-06T08:06:27.519Z,24.10
2022-09-06T08:10:34.489Z,24.40
2022-09-06T08:12:37.035Z,24.60
2022-09-06T08:14:39.580Z,24.60
2022-09-06T08:16:42.282Z,24.80
2022-09-06T08:18:44.918Z,24.90
2022-09-06T08:20:47.477Z,24.90
2022-09-06T08:22:50.020Z,24.90
2022-09-06T08:24:52.689Z,25.00
2022-09-06T08:26:55.251Z,25.10
2022-09-06T08:28:58.558Z,25.00
2022-09-06T08:31:08.137Z,25.10
2022-09-06T08:33:10.903Z,25.00
2022-09-06T08:35:13.505Z,25.10
2022-09-06T08:37:16.025Z,25.10
2022-09-06T08:39:18.537Z,25.30
2022-09-06T08:41:24.131Z,25.40
2022-09-06T08:43:26.710Z,25.50
2022-09-06T08:45:29.336Z,25.70
2022-09-06T08:47:31.950Z,25.80
2022-09-06T08:49:36.433Z,26.00
2022-09-06T08:51:44.747Z,26.20
2022-09-06T08:53:47.391Z,26.40
2022-09-06T08:55:53.526Z,26.50
2022-09-06T08:58:00.337Z,26.60
2022-09-06T09:00:06.717Z,26.70
2022-09-06T09:02:11.256Z,26.80
2022-09-06T09:04:15.385Z,26.90
2022-09-06T09:06:18.121Z,26.90
2022-09-06T09:08:22.527Z,27.10
2022-09-06T09:10:27.136Z,27.10
2022-09-06T09:12:31.907Z,27.10
2022-09-06T09:14:37.379Z,27.20
2022-09-06T09:16:39.999Z,27.40
2022-09-06T09:18:43.822Z,27.40
2022-09-06T09:20:46.382Z,27.50
2022-09-06T09:22:49.226Z,27.70
2022-09-06T09:24:52.253Z,27.80
2022-09-06T09:26:56.657Z,27.70
2022-09-06T09:29:03.970Z,27.80
2022-09-06T09:31:07.355Z,27.70
2022-09-06T09:33:19.335Z,27.90
2022-09-06T09:35:24.050Z,28.10
2022-09-06T09:39:35.667Z,28.40
2022-09-06T09:41:39.192Z,28.60
2022-09-06T09:43:42.049Z,28.70
2022-09-06T09:45:44.910Z,28.70
2022-09-06T09:47:47.659Z,28.80
2022-09-06T09:49:50.223Z,28.70
2022-09-06T09:52:04.236Z,28.80
2022-09-06T09:54:07.662Z,29.00
2022-09-06T09:56:10.184Z,29.00
2022-09-06T09:58:19.107Z,29.20
2022-09-06T10:00:42.669Z,29.20
2022-09-06T10:02:45.250Z,29.40
2022-09-06T10:04:49.454Z,29.30
2022-09-06T10:08:56.435Z,29.10
2022-09-06T10:10:58.956Z,29.10
2022-09-06T10:13:08.691Z,29.40
2022-09-06T10:15:12.128Z,29.40
2022-09-06T10:17:22.148Z,29.00
2022-09-06T10:19:40.251Z,28.90
2022-09-06T10:21:42.773Z,28.70
2022-09-06T10:25:55.381Z,29.20
2022-09-06T10:28:15.720Z,29.40
2022-09-06T10:30:21.627Z,29.40
2022-09-06T10:32:31.071Z,29.40
2022-09-06T10:34:46.611Z,29.70
2022-09-06T10:36:50.967Z,29.80
2022-09-06T10:38:54.457Z,29.70
2022-09-06T10:40:59.131Z,29.70
2022-09-06T10:43:03.182Z,29.80
2022-09-06T10:45:15.286Z,30.00
2022-09-06T10:47:18.122Z,30.00
2022-09-06T10:49:20.789Z,30.10
2022-09-06T10:51:25.268Z,30.10
2022-09-06T10:53:46.924Z,29.90
2022-09-06T10:55:51.510Z,29.90
2022-09-06T11:00:02.362Z,30.10
2022-09-06T11:02:11.218Z,30.20
2022-09-06T11:04:17.600Z,30.20
2022-09-06T11:06:24.304Z,30.40
2022-09-06T11:10:34.322Z,30.50
2022-09-06T11:12:39.922Z,30.50
2022-09-06T11:14:42.478Z,30.60
2022-09-06T11:16:47.876Z,30.70
2022-09-06T11:18:52.678Z,30.60
2022-09-06T11:20:58.546Z,30.40
2022-09-06T11:23:24.024Z,30.50
2022-09-06T11:25:30.390Z,30.60
2022-09-06T11:27:35.613Z,30.70
2022-09-06T11:29:40.137Z,30.60
2022-09-06T11:34:05.173Z,30.60
2022-09-06T11:36:37.458Z,30.90
2022-09-06T11:38:42.325Z,30.60
2022-09-06T11:40:46.277Z,30.30
2022-09-06T11:43:09.358Z,30.40
2022-09-06T11:47:38.336Z,30.00
2022-09-06T11:51:56.806Z,30.20
2022-09-06T11:54:05.547Z,30.40
2022-09-06T11:56:12.229Z,30.40
2022-09-06T11:58:23.142Z,30.30
2022-09-06T12:00:26.442Z,30.40
2022-09-06T12:02:30.675Z,30.50
2022-09-06T12:04:50.894Z,30.60
2022-09-06T12:07:08.943Z,30.70
2022-09-06T12:09:26.935Z,30.90
2022-09-06T12:11:32.203Z,30.90
2022-09-06T12:13:42.735Z,31.00
2022-09-06T12:15:46.329Z,31.10
2022-09-06T12:17:48.918Z,31.10
2022-09-06T12:19:52.095Z,31.10
2022-09-06T12:21:54.641Z,31.10
2022-09-06T12:23:57.192Z,31.10
2022-09-06T12:25:59.764Z,31.00
2022-09-06T12:28:03.302Z,30.90
2022-09-06T12:30:08.335Z,30.80
2022-09-06T12:32:11.083Z,30.50
2022-09-06T12:34:14.743Z,30.60
2022-09-06T12:36:18.784Z,30.70
2022-09-06T12:38:24.006Z,30.90
2022-09-06T12:40:27.623Z,31.00
2022-09-06T12:42:30.419Z,31.10
2022-09-06T12:44:35.515Z,31.00
2022-09-06T12:46:39.429Z,31.10
2022-09-06T12:48:44.857Z,31.00
2022-09-06T12:50:49.326Z,31.10
2022-09-06T12:52:53.353Z,31.30
2022-09-06T12:54:55.920Z,31.20
2022-09-06T12:57:00.819Z,31.10
2022-09-06T12:59:16.691Z,31.10
2022-09-06T13:01:22.466Z,31.00
2022-09-06T13:03:26.930Z,31.10
2022-09-06T13:05:29.551Z,31.10
2022-09-06T13:07:33.796Z,31.00
2022-09-06T13:09:37.931Z,31.10
2022-09-06T13:11:42.284Z,31.10
2022-09-06T13:13:48.899Z,31.20
2022-09-06T13:15:52.321Z,31.30
2022-09-06T13:17:56.715Z,31.40
2022-09-06T13:20:02.414Z,31.30
2022-09-06T13:22:07.015Z,31.20
2022-09-06T13:24:19.497Z,31.20
2022-09-06T13:26:35.335Z,31.20
2022-09-06T13:28:37.848Z,31.30
2022-09-06T13:30:41.797Z,31.30
2022-09-06T13:32:46.959Z,31.10
2022-09-06T13:34:52.302Z,31.10
2022-09-06T13:36:56.730Z,31.20
2022-09-06T13:39:01.600Z,31.20
2022-09-06T13:41:16.087Z,31.30
2022-09-06T13:43:11.351Z,31.20
2022-09-06T13:45:19.099Z,31.30
2022-09-06T13:47:21.713Z,31.30
2022-09-06T13:49:24.582Z,31.20
2022-09-06T13:51:27.408Z,30.90
2022-09-06T13:53:31.110Z,30.60
2022-09-06T13:55:33.623Z,30.30
2022-09-06T13:57:36.251Z,30.30
2022-09-06T13:59:38.777Z,30.50
2022-09-06T14:01:42.129Z,30.70
2022-09-06T14:03:44.689Z,30.80
2022-09-06T14:05:47.400Z,30.90
2022-09-06T14:07:49.957Z,30.90
2022-09-06T14:09:52.468Z,30.80
2022-09-06T14:12:30.957Z,30.80
2022-09-06T14:14:35.457Z,30.80
2022-09-06T14:16:38.230Z,30.90
2022-09-06T14:18:40.945Z,30.90
2022-09-06T14:20:45.417Z,31.00
2022-09-06T14:22:48.121Z,31.10
2022-09-06T14:24:50.822Z,31.00
2022-09-06T14:26:53.496Z,31.20
2022-09-06T14:28:56.207Z,31.30
2022-09-06T14:30:58.758Z,31.20
2022-09-06T14:33:01.289Z,31.20
2022-09-06T14:35:05.257Z,31.00
2022-09-06T14:37:12.862Z,30.90
2022-09-06T14:39:12.148Z,30.80
2022-09-06T14:41:15.621Z,30.90
2022-09-06T14:43:18.289Z,31.00
2022-09-06T14:45:20.977Z,31.00
2022-09-06T14:47:23.674Z,31.20
2022-09-06T14:49:26.990Z,31.20
2022-09-06T14:51:29.906Z,31.30
2022-09-06T14:53:40.334Z,31.30
2022-09-06T14:55:39.104Z,31.30
2022-09-06T14:57:41.808Z,31.40
2022-09-06T14:59:44.551Z,31.50
2022-09-06T15:01:48.499Z,31.60
2022-09-06T15:03:52.412Z,31.60
2022-09-06T15:05:55.111Z,31.60
2022-09-06T15:07:57.813Z,31.60
2022-09-06T15:10:01.097Z,31.80
2022-09-06T15:12:03.938Z,31.70
2022-09-06T15:14:07.992Z,31.70
2022-09-06T15:16:14.980Z,31.70
2022-09-06T15:18:17.666Z,31.70
2022-09-06T15:20:22.085Z,31.70
2022-09-06T15:22:25.113Z,31.80
2022-09-06T15:24:28.061Z,31.60
2022-09-06T15:26:30.821Z,31.60
2022-09-06T15:28:34.150Z,31.50
2022-09-06T15:30:38.877Z,31.50
2022-09-06T15:32:42.670Z,31.60
2022-09-06T15:34:45.641Z,31.60
2022-09-06T15:36:48.537Z,31.80
2022-09-06T15:38:51.929Z,31.80
2022-09-06T15:41:07.962Z,31.80
2022-09-06T15:43:08.481Z,31.80
2022-09-06T15:45:11.525Z,31.60
2022-09-06T15:49:31.106Z,31.60
2022-09-06T15:51:34.520Z,31.60
2022-09-06T15:53:37.476Z,31.60
2022-09-06T15:55:58.243Z,31.60
2022-09-06T15:58:00.914Z,31.90
2022-09-06T16:00:04.462Z,32.10
2022-09-06T16:02:07.226Z,32.10
2022-09-06T16:04:09.978Z,32.20
2022-09-06T16:06:29.347Z,32.10
2022-09-06T16:08:19.067Z,32.20
2022-09-06T16:10:21.942Z,32.00
2022-09-06T16:12:24.637Z,32.10
2022-09-06T16:14:28.399Z,31.90
2022-09-06T16:16:32.174Z,31.90
2022-09-06T16:18:35.926Z,31.90
2022-09-06T16:20:38.645Z,31.90
2022-09-06T16:22:41.330Z,31.80
2022-09-06T16:24:44.420Z,31.90
2022-09-06T16:26:49.920Z,31.90
2022-09-06T16:28:55.273Z,31.80
2022-09-06T16:31:01.333Z,31.70
2022-09-06T16:33:04.196Z,31.70
2022-09-06T16:35:07.527Z,31.60
2022-09-06T16:37:12.471Z,31.60
2022-09-06T16:39:16.960Z,31.50
2022-09-06T16:41:21.718Z,31.60
2022-09-06T16:43:24.662Z,31.50
2022-09-06T16:45:27.465Z,31.50
2022-09-06T16:47:31.253Z,31.60
2022-09-06T16:49:35.790Z,31.60
2022-09-06T16:51:38.542Z,31.60
2022-09-06T16:53:42.209Z,31.50
2022-09-06T16:55:44.972Z,31.50
2022-09-06T16:57:48.518Z,31.30
2022-09-06T16:59:52.843Z,31.30
2022-09-06T17:01:57.574Z,31.30
2022-09-06T17:04:02.334Z,31.20
2022-09-06T17:06:07.466Z,31.20
2022-09-06T17:08:10.778Z,31.10
2022-09-06T17:10:14.360Z,31.00
2022-09-06T17:12:18.278Z,30.90
2022-09-06T17:14:21.352Z,30.80
2022-09-06T17:16:42.236Z,30.70
2022-09-06T17:18:45.034Z,30.50
2022-09-06T17:20:55.035Z,30.40
2022-09-06T17:22:59.294Z,30.30
2022-09-06T17:25:04.792Z,30.20
2022-09-06T17:27:07.886Z,29.90
2022-09-06T17:29:11.422Z,29.80
2022-09-06T17:31:14.415Z,29.60
2022-09-06T17:33:17.519Z,29.40
2022-09-06T17:35:20.363Z,29.30
2022-09-06T17:37:23.111Z,29.20
2022-09-06T17:39:30.389Z,29.00
2022-09-06T17:41:36.019Z,29.00
2022-09-06T17:43:38.708Z,28.80
2022-09-06T17:45:42.408Z,28.70
2022-09-06T17:47:45.375Z,28.50
2022-09-06T17:49:48.293Z,28.30
2022-09-06T17:51:51.718Z,28.20
2022-09-06T17:53:54.449Z,28.10
2022-09-06T17:55:57.691Z,27.90
2022-09-06T17:58:00.711Z,27.80
2022-09-06T18:00:04.581Z,27.60
2022-09-06T18:02:07.872Z,27.40
2022-09-06T18:04:11.481Z,27.20
2022-09-06T18:06:15.156Z,27.00
2022-09-06T18:08:18.118Z,26.90
2022-09-06T18:10:21.729Z,26.80
2022-09-06T18:12:24.462Z,26.60
2022-09-06T18:14:27.983Z,26.50
2022-09-06T18:16:31.770Z,26.40
2022-09-06T18:18:34.915Z,26.40
2022-09-06T18:20:37.867Z,26.40
2022-09-06T18:22:41.405Z,26.20
2022-09-06T18:24:44.133Z,26.10
2022-09-06T18:26:46.897Z,26.00
2022-09-06T18:28:50.031Z,25.90
2022-09-06T18:30:53.497Z,25.70
2022-09-06T18:32:56.505Z,25.60
2022-09-06T18:34:59.341Z,25.40
2022-09-06T18:37:02.096Z,25.30
2022-09-06T18:39:04.983Z,25.10
2022-09-06T18:41:08.397Z,24.90
2022-09-06T18:43:11.688Z,24.80
2022-09-06T18:45:15.204Z,24.70
2022-09-06T18:47:18.623Z,24.60
2022-09-06T18:49:22.045Z,24.40
2022-09-06T18:51:25.632Z,24.30
2022-09-06T18:53:30.095Z,24.30
2022-09-06T18:55:37.516Z,24.30
2022-09-06T18:57:41.349Z,24.30
2022-09-06T18:59:45.143Z,24.30
2022-09-06T19:01:48.884Z,24.40
2022-09-06T19:03:52.774Z,24.40
2022-09-06T19:05:57.664Z,24.40
2022-09-06T19:08:01.239Z,24.40
2022-09-06T19:10:05.601Z,24.50
2022-09-06T19:12:11.061Z,24.50
2022-09-06T19:14:14.645Z,24.40
2022-09-06T19:16:18.367Z,24.20
2022-09-06T19:18:23.352Z,23.90
2022-09-06T19:20:26.955Z,23.60
2022-09-06T19:22:30.678Z,23.60
2022-09-06T19:24:34.289Z,23.50
2022-09-06T19:26:40.883Z,23.60
2022-09-06T19:28:48.024Z,23.60
2022-09-06T19:30:51.912Z,23.50
2022-09-06T19:32:55.674Z,23.60
2022-09-06T19:35:00.056Z,23.60
2022-09-06T19:37:03.827Z,23.60
2022-09-06T19:39:08.200Z,23.70
2022-09-06T19:41:12.618Z,23.70
2022-09-06T19:43:16.090Z,23.70
2022-09-06T19:45:19.701Z,23.70
2022-09-06T19:47:23.150Z,23.70
2022-09-06T19:49:26.576Z,23.60
2022-09-06T19:51:29.590Z,23.50
2022-09-06T19:53:33.240Z,23.40
2022-09-06T19:55:37.042Z,23.30
2022-09-06T19:57:40.716Z,23.10
2022-09-06T19:59:44.262Z,23.10
2022-09-06T20:01:48.125Z,23.10
2022-09-06T20:03:52.063Z,23.10
2022-09-06T20:05:57.488Z,23.10
2022-09-06T20:08:00.933Z,23.00
2022-09-06T20:10:06.063Z,22.80
2022-09-06T20:12:10.687Z,22.60
2022-09-06T20:14:14.253Z,22.60
2022-09-06T20:16:20.641Z,22.50
2022-09-06T20:18:23.862Z,22.40
2022-09-06T20:20:27.399Z,22.40
2022-09-06T20:22:31.331Z,22.40
2022-09-06T20:24:34.411Z,22.40
2022-09-06T20:26:38.182Z,22.40
2022-09-06T20:28:42.045Z,22.40
2022-09-06T20:30:44.956Z,22.40
2022-09-06T20:32:48.349Z,22.30
2022-09-06T20:34:51.130Z,22.40
2022-09-06T20:36:54.452Z,22.50
2022-09-06T20:38:59.652Z,22.40
2022-09-06T20:41:06.388Z,22.40
2022-09-06T20:43:11.611Z,22.30
2022-09-06T20:45:17.505Z,22.30
2022-09-06T20:47:22.359Z,22.30
2022-09-06T20:49:26.289Z,22.20
2022-09-06T20:51:30.093Z,22.20
2022-09-06T20:53:34.643Z,22.10
2022-09-06T20:55:38.452Z,22.00
2022-09-06T20:57:43.241Z,22.00
2022-09-06T20:59:48.860Z,22.00
2022-09-06T21:01:53.656Z,21.90
2022-09-06T21:03:59.699Z,21.90
2022-09-06T21:06:05.999Z,21.80
2022-09-06T21:08:10.296Z,21.70
2022-09-06T21:10:14.805Z,21.70
2022-09-06T21:12:19.501Z,21.70
2022-09-06T21:14:25.110Z,21.70
2022-09-06T21:16:29.894Z,21.70
2022-09-06T21:18:35.154Z,21.80
2022-09-06T21:20:43.690Z,21.70
2022-09-06T21:22:47.876Z,21.70
2022-09-06T21:24:51.564Z,21.60
2022-09-06T21:26:54.236Z,21.50
2022-09-06T21:28:57.991Z,21.50
2022-09-06T21:31:01.738Z,21.40
2022-09-06T21:33:04.570Z,21.40
2022-09-06T21:35:07.951Z,21.30
2022-09-06T21:37:10.665Z,21.40
2022-09-06T21:39:14.128Z,21.40
2022-09-06T21:41:17.612Z,21.30
2022-09-06T21:43:20.351Z,21.20
2022-09-06T21:45:23.183Z,21.10
2022-09-06T21:47:25.957Z,21.10
2022-09-06T21:49:28.604Z,21.10
2022-09-06T21:51:31.843Z,21.20
2022-09-06T21:53:34.622Z,21.10
2022-09-06T21:55:37.347Z,21.10
2022-09-06T21:57:40.040Z,21.20
2022-09-06T21:59:42.736Z,21.20
2022-09-06T22:01:45.907Z,21.10
2022-09-06T22:03:48.646Z,21.10
2022-09-06T22:05:51.375Z,20.90
2022-09-06T22:07:54.095Z,20.90
2022-09-06T22:09:56.821Z,20.80
2022-09-06T22:11:59.547Z,20.80
2022-09-06T22:14:03.425Z,20.80
2022-09-06T22:16:08.008Z,20.80
2022-09-06T22:18:11.387Z,20.80
2022-09-06T22:20:14.089Z,20.80
2022-09-06T22:22:16.805Z,20.90
2022-09-06T22:24:19.589Z,20.80
2022-09-06T22:26:22.848Z,20.80
2022-09-06T22:28:25.549Z,20.70
2022-09-06T22:30:28.243Z,20.70
2022-09-06T22:32:31.689Z,20.60
2022-09-06T22:34:34.509Z,20.60
2022-09-06T22:36:37.219Z,20.60
2022-09-06T22:38:39.885Z,20.60
2022-09-06T22:40:42.574Z,20.60
2022-09-06T22:42:45.402Z,20.70
2022-09-06T22:44:48.115Z,20.70
2022-09-06T22:46:50.852Z,21.00
2022-09-06T22:48:53.610Z,21.50
2022-09-06T22:50:56.313Z,21.80
2022-09-06T22:52:59.070Z,22.00
2022-09-06T22:55:02.014Z,22.10
2022-09-06T22:57:04.828Z,22.20
2022-09-06T22:59:07.939Z,22.10
2022-09-06T23:01:11.794Z,22.10
2022-09-06T23:03:14.577Z,21.90
2022-09-06T23:05:17.489Z,21.90
2022-09-06T23:07:20.197Z,21.80
2022-09-06T23:09:22.920Z,21.70
2022-09-06T23:11:26.854Z,21.80
2022-09-06T23:13:29.533Z,21.90
2022-09-06T23:15:34.934Z,22.00
2022-09-06T23:17:37.647Z,21.90
2022-09-06T23:19:40.438Z,21.90
2022-09-06T23:21:43.158Z,21.80
2022-09-06T23:23:46.562Z,21.80
2022-09-06T23:25:49.269Z,21.80
2022-09-06T23:27:51.987Z,21.80
2022-09-06T23:29:54.733Z,21.80
2022-09-06T23:31:57.415Z,21.80
2022-09-06T23:34:00.856Z,21.70
2022-09-06T23:36:04.103Z,21.70
2022-09-06T23:38:06.807Z,21.60
2022-09-06T23:40:10.313Z,21.60
2022-09-06T23:42:13.006Z,21.50
2022-09-06T23:44:15.741Z,21.40
2022-09-06T23:46:18.503Z,21.30
2022-09-06T23:48:21.259Z,21.20
2022-09-06T23:50:23.921Z,21.30
2022-09-06T23:52:26.665Z,21.30
2022-09-06T23:54:29.385Z,21.30
2022-09-06T23:56:32.074Z,21.30
2022-09-06T23:58:35.444Z,21.50
